createdAt,value
2019-04-11T00:01:01.772Z,18.67
2019-04-11T00:03:35.574Z,19.17
2019-04-11T00:06:29.745Z,18.17
2019-04-11T00:09:05.888Z,19.03
2019-04-11T00:11:39.893Z,20.83
2019-04-11T00:14:14.294Z,20.63
2019-04-11T00:16:47.692Z,18.87
2019-04-11T00:19:21.395Z,20.50
2019-04-11T00:21:55.253Z,19.20
2019-04-11T00:24:29.219Z,20.80
2019-04-11T00:27:02.912Z,18.83
2019-04-11T00:29:36.667Z,21.03
2019-04-11T00:32:11.935Z,21.70
2019-04-11T00:34:44.956Z,21.70
2019-04-11T00:37:19.063Z,22.27
2019-04-11T00:39:52.745Z,21.37
2019-04-11T00:42:26.351Z,20.87
2019-04-11T00:45:03.251Z,19.75
2019-04-11T00:47:38.200Z,21.30
2019-04-11T00:50:12.745Z,20.20
2019-04-11T00:52:49.420Z,19.52
2019-04-11T00:55:23.758Z,18.67
2019-04-11T00:57:58.754Z,17.83
2019-04-11T01:00:33.258Z,18.40
2019-04-11T01:03:07.140Z,18.33
2019-04-11T01:05:41.442Z,15.93
2019-04-11T01:08:15.716Z,15.80
2019-04-11T01:10:49.753Z,12.50
2019-04-11T01:13:23.815Z,11.07
2019-04-11T01:15:57.914Z,11.55
2019-04-11T01:18:31.519Z,11.90
2019-04-11T01:21:06.139Z,12.00
2019-04-11T01:23:40.149Z,12.70
2019-04-11T01:26:15.405Z,11.70
2019-04-11T01:28:49.464Z,11.07
2019-04-11T01:31:23.184Z,9.63
2019-04-11T01:33:57.070Z,9.87
2019-04-11T01:36:33.253Z,8.13
2019-04-11T01:39:08.498Z,7.43
2019-04-11T01:41:42.633Z,7.97
2019-04-11T01:44:16.521Z,7.20
2019-04-11T01:46:50.689Z,7.77
2019-04-11T01:49:26.130Z,7.70
2019-04-11T01:52:00.163Z,8.00
2019-04-11T01:54:33.982Z,8.63
2019-04-11T01:57:07.930Z,8.60
2019-04-11T01:59:43.709Z,8.47
2019-04-11T02:02:19.100Z,7.97
2019-04-11T02:04:52.785Z,9.38
2019-04-11T02:07:26.831Z,9.10
2019-04-11T02:10:00.605Z,8.53
2019-04-11T02:12:35.915Z,8.77
2019-04-11T02:15:10.481Z,8.00
2019-04-11T02:17:44.095Z,7.17
2019-04-11T02:20:19.526Z,7.78
2019-04-11T02:22:53.056Z,8.78
2019-04-11T02:25:28.158Z,7.75
2019-04-11T02:28:01.528Z,7.33
2019-04-11T02:30:36.278Z,8.07
2019-04-11T02:33:11.751Z,7.53
2019-04-11T02:35:48.991Z,7.90
2019-04-11T02:38:23.290Z,7.60
2019-04-11T02:40:57.421Z,6.92
2019-04-11T02:43:34.090Z,7.20
2019-04-11T02:46:16.896Z,7.23
2019-04-11T02:48:44.930Z,5.73
2019-04-11T02:51:20.461Z,5.35
2019-04-11T02:53:54.972Z,5.80
2019-04-11T02:56:28.814Z,6.03
2019-04-11T02:59:04.491Z,5.83
2019-04-11T03:01:38.007Z,6.40
2019-04-11T03:04:12.896Z,7.03
2019-04-11T03:06:47.809Z,6.37
2019-04-11T03:09:22.043Z,5.80
2019-04-11T03:11:58.930Z,6.62
2019-04-11T03:14:46.529Z,6.70
2019-04-11T03:17:14.984Z,6.73
2019-04-11T03:19:59.335Z,5.60
2019-04-11T03:22:20.252Z,6.00
2019-04-11T03:24:55.407Z,5.95
2019-04-11T03:27:30.528Z,6.10
2019-04-11T03:30:07.852Z,5.30
2019-04-11T03:38:19.481Z,5.62
2019-04-11T03:40:55.273Z,5.17
2019-04-11T03:43:24.328Z,4.73
2019-04-11T03:46:03.983Z,5.03
2019-04-11T03:48:33.790Z,4.83
2019-04-11T03:50:57.152Z,4.52
2019-04-11T03:53:34.289Z,4.47
2019-04-11T03:56:09.645Z,6.00
2019-04-11T03:58:43.773Z,5.33
2019-04-11T04:01:18.310Z,5.80
2019-04-11T04:03:54.231Z,6.63
2019-04-11T04:06:30.901Z,7.53
2019-04-11T04:09:04.753Z,8.80
2019-04-11T04:11:40.740Z,7.57
2019-04-11T04:14:15.006Z,8.53
2019-04-11T04:16:51.074Z,8.28
2019-04-11T04:19:25.161Z,8.10
2019-04-11T04:21:59.616Z,8.17
2019-04-11T04:24:37.874Z,7.93
2019-04-11T04:27:23.080Z,9.00
2019-04-11T04:29:57.639Z,8.60
2019-04-11T04:32:30.452Z,9.07
2019-04-11T04:35:10.410Z,9.10
2019-04-11T04:37:43.092Z,9.33
2019-04-11T04:40:31.579Z,8.40
2019-04-11T04:42:55.339Z,8.30
2019-04-11T04:45:27.630Z,9.23
2019-04-11T04:48:06.878Z,8.85
2019-04-11T04:50:36.699Z,6.70
2019-04-11T04:53:11.357Z,7.03
2019-04-11T04:55:47.671Z,4.20
2019-04-11T04:58:22.130Z,4.93
2019-04-11T05:00:56.719Z,5.30
2019-04-11T05:03:34.266Z,6.00
2019-04-11T05:06:07.917Z,6.17
2019-04-11T05:08:49.194Z,7.50
2019-04-11T05:11:26.214Z,7.50
2019-04-11T05:14:04.917Z,7.12
2019-04-11T05:16:38.420Z,6.50
2019-04-11T05:19:12.851Z,6.07
2019-04-11T05:21:47.745Z,7.23
2019-04-11T05:24:23.231Z,6.13
2019-04-11T05:26:57.816Z,6.50
2019-04-11T05:29:31.684Z,6.30
2019-04-11T05:32:05.423Z,5.90
2019-04-11T05:34:39.344Z,5.73
2019-04-11T05:37:15.233Z,6.03
2019-04-11T05:39:50.464Z,5.73
2019-04-11T05:42:26.524Z,6.65
2019-04-11T05:44:59.134Z,6.60
2019-04-11T05:47:33.352Z,6.47
2019-04-11T05:50:11.382Z,6.03
2019-04-11T05:52:45.114Z,5.90
2019-04-11T05:55:20.243Z,5.83
2019-04-11T05:57:54.406Z,5.80
2019-04-11T06:00:30.313Z,6.10
2019-04-11T06:03:04.174Z,5.50
2019-04-11T06:05:39.050Z,6.00
2019-04-11T06:08:25.065Z,6.80
2019-04-11T06:10:54.709Z,6.00
2019-04-11T06:13:28.799Z,6.30
2019-04-11T06:16:02.956Z,5.83
2019-04-11T06:18:43.068Z,7.10
2019-04-11T06:21:13.992Z,6.20
2019-04-11T06:23:54.458Z,6.53
2019-04-11T06:26:27.992Z,7.08
2019-04-11T06:29:14.726Z,7.27
2019-04-11T06:31:38.589Z,6.60
2019-04-11T06:34:13.322Z,6.97
2019-04-11T06:36:48.135Z,6.70
2019-04-11T06:39:21.521Z,6.87
2019-04-11T06:41:55.216Z,7.28
2019-04-11T06:44:29.972Z,6.80
2019-04-11T06:47:05.383Z,7.00
2019-04-11T06:49:46.984Z,7.10
2019-04-11T06:52:20.954Z,6.60
2019-04-11T06:54:54.596Z,6.45
2019-04-11T06:57:29.904Z,6.60
2019-04-11T07:00:05.106Z,6.25
2019-04-11T07:02:38.937Z,5.80
2019-04-11T07:05:13.999Z,5.87
2019-04-11T07:07:47.725Z,5.73
2019-04-11T07:10:24.581Z,6.63
2019-04-11T07:12:59.359Z,6.30
2019-04-11T07:15:40.210Z,5.43
2019-04-11T07:18:14.124Z,5.47
2019-04-11T07:20:47.655Z,5.40
2019-04-11T07:23:24.246Z,4.90
2019-04-11T07:25:58.258Z,5.00
2019-04-11T07:28:31.883Z,4.83
2019-04-11T07:31:06.785Z,4.87
2019-04-11T07:33:40.932Z,5.30
2019-04-11T07:36:14.825Z,4.67
2019-04-11T07:38:50.608Z,4.80
2019-04-11T07:41:23.937Z,4.73
2019-04-11T07:43:58.527Z,4.43
2019-04-11T07:46:32.866Z,4.30
2019-04-11T07:49:08.039Z,4.17
2019-04-11T07:51:42.998Z,4.07
2019-04-11T07:54:17.952Z,3.70
2019-04-11T07:56:53.104Z,4.10
2019-04-11T07:59:27.171Z,4.03
2019-04-11T08:02:01.584Z,3.87
2019-04-11T08:04:40.806Z,4.03
2019-04-11T08:07:15.402Z,4.10
2019-04-11T08:09:48.914Z,4.00
2019-04-11T08:12:24.041Z,3.70
2019-04-11T08:14:59.260Z,3.80
2019-04-11T08:17:37.686Z,3.80
2019-04-11T08:20:08.908Z,3.87
2019-04-11T08:22:45.455Z,3.77
2019-04-11T08:25:19.407Z,3.90
2019-04-11T08:27:59.965Z,3.40
2019-04-11T08:30:29.389Z,3.90
2019-04-11T08:33:02.911Z,3.80
2019-04-11T08:35:37.349Z,4.17
2019-04-11T08:38:13.991Z,3.90
2019-04-11T08:40:49.121Z,3.60
2019-04-11T08:43:23.479Z,3.73
2019-04-11T08:45:58.236Z,3.87
2019-04-11T08:48:32.966Z,3.75
2019-04-11T08:51:08.096Z,3.55
2019-04-11T08:53:42.734Z,4.17
2019-04-11T08:56:16.788Z,3.83
2019-04-11T08:59:18.922Z,3.97
2019-04-11T09:01:53.948Z,4.07
2019-04-11T09:04:27.686Z,4.20
2019-04-11T09:07:05.963Z,4.10
2019-04-11T09:09:40.627Z,3.50
2019-04-11T09:12:15.235Z,3.60
2019-04-11T09:14:50.849Z,3.70
2019-04-11T09:17:26.156Z,3.63
2019-04-11T09:20:00.133Z,3.77
2019-04-11T09:22:33.869Z,4.10
2019-04-11T09:25:08.981Z,3.63
2019-04-11T09:27:44.750Z,3.80
2019-04-11T09:30:19.059Z,4.00
2019-04-11T09:32:54.531Z,4.20
2019-04-11T09:35:28.183Z,4.77
2019-04-11T09:38:02.195Z,4.17
2019-04-11T09:40:36.699Z,3.67
2019-04-11T09:43:11.876Z,4.30
2019-04-11T09:45:45.793Z,4.80
2019-04-11T09:48:20.776Z,5.60
2019-04-11T09:50:54.738Z,5.50
2019-04-11T09:53:28.898Z,5.10
2019-04-11T09:56:04.851Z,5.87
2019-04-11T09:58:39.907Z,5.30
2019-04-11T10:01:20.287Z,5.10
2019-04-11T10:03:54.755Z,5.53
2019-04-11T10:06:30.144Z,5.30
2019-04-11T10:09:04.385Z,5.10
2019-04-11T10:11:40.344Z,5.10
2019-04-11T10:14:16.060Z,5.33
2019-04-11T10:16:50.601Z,5.43
2019-04-11T10:19:25.124Z,5.93
2019-04-11T10:22:02.810Z,5.53
2019-04-11T10:24:36.746Z,5.93
2019-04-11T10:27:12.197Z,6.03
2019-04-11T10:29:46.332Z,5.67
2019-04-11T10:32:21.393Z,6.07
2019-04-11T10:34:56.072Z,5.97
2019-04-11T10:37:31.729Z,6.25
2019-04-11T10:40:10.117Z,6.37
2019-04-11T10:42:46.561Z,6.33
2019-04-11T10:45:38.507Z,7.00
2019-04-11T10:48:14.078Z,6.83
2019-04-11T10:50:52.672Z,7.87
2019-04-11T10:53:33.946Z,8.30
2019-04-11T10:56:14.020Z,8.03
2019-04-11T10:58:51.240Z,9.07
2019-04-11T11:01:26.685Z,9.83
2019-04-11T11:04:01.234Z,9.70
2019-04-11T11:06:37.932Z,10.07
2019-04-11T11:09:19.784Z,11.30
2019-04-11T11:11:56.792Z,10.73
2019-04-11T11:14:34.433Z,12.60
2019-04-11T11:17:09.238Z,13.03
2019-04-11T11:19:57.331Z,13.37
2019-04-11T11:22:23.641Z,13.70
2019-04-11T11:25:00.132Z,15.10
2019-04-11T11:27:35.300Z,16.00
2019-04-11T11:30:10.815Z,15.90
2019-04-11T11:32:45.562Z,15.33
2019-04-11T11:35:27.054Z,13.43
2019-04-11T11:37:55.852Z,15.63
2019-04-11T11:40:32.067Z,16.97
2019-04-11T11:43:06.634Z,16.90
2019-04-11T11:45:41.645Z,15.33
2019-04-11T11:48:19.322Z,15.07
2019-04-11T11:50:52.852Z,15.40
2019-04-11T11:53:29.824Z,15.80
2019-04-11T11:56:10.593Z,17.27
2019-04-11T11:58:55.393Z,19.27
2019-04-11T12:01:31.673Z,18.37
2019-04-11T12:04:13.053Z,19.30
2019-04-11T12:07:00.823Z,18.70
2019-04-11T12:09:32.635Z,18.48
2019-04-11T12:12:09.524Z,18.80
2019-04-11T12:14:59.281Z,19.27
2019-04-11T12:17:24.982Z,19.07
2019-04-11T12:20:11.040Z,19.50
2019-04-11T12:22:42.226Z,19.82
2019-04-11T12:25:23.193Z,18.93
2019-04-11T12:28:00.818Z,18.83
2019-04-11T12:30:37.491Z,19.17
2019-04-11T12:33:14.068Z,19.13
2019-04-11T12:35:50.739Z,18.83
2019-04-11T12:38:26.139Z,19.27
2019-04-11T12:41:02.631Z,19.13
2019-04-11T12:43:42.614Z,18.80
2019-04-11T12:46:29.473Z,18.67
2019-04-11T12:48:55.716Z,19.03
2019-04-11T12:51:30.080Z,19.12
2019-04-11T12:54:10.107Z,19.13
2019-04-11T12:56:46.900Z,18.27
2019-04-11T12:59:25.618Z,18.13
2019-04-11T13:02:01.747Z,18.57
2019-04-11T13:04:37.162Z,19.43
2019-04-11T13:07:12.572Z,19.80
2019-04-11T13:09:48.067Z,19.30
2019-04-11T13:12:25.001Z,17.15
2019-04-11T13:14:59.745Z,18.10
2019-04-11T13:17:34.670Z,19.37
2019-04-11T13:20:12.110Z,20.67
2019-04-11T13:22:50.095Z,19.40
2019-04-11T13:25:25.878Z,31.83
2019-04-11T13:28:00.881Z,19.87
2019-04-11T13:30:38.681Z,19.43
2019-04-11T13:33:15.360Z,19.80
2019-04-11T13:35:50.202Z,20.33
2019-04-11T13:38:26.128Z,19.73
2019-04-11T13:41:01.831Z,19.53
2019-04-11T13:43:37.446Z,20.37
2019-04-11T13:46:14.948Z,20.77
2019-04-11T13:48:50.334Z,20.43
2019-04-11T13:51:25.973Z,20.45
2019-04-11T13:54:01.747Z,20.27
2019-04-11T13:56:36.334Z,20.20
2019-04-11T13:59:12.384Z,20.97
2019-04-11T14:01:47.376Z,19.95
2019-04-11T14:04:23.829Z,20.80
2019-04-11T14:07:00.152Z,20.43
2019-04-11T14:09:35.207Z,20.77
2019-04-11T14:12:11.783Z,20.43
2019-04-11T14:14:46.064Z,19.80
2019-04-11T14:17:21.765Z,20.40
2019-04-11T14:19:55.454Z,19.10
2019-04-11T14:22:29.380Z,19.70
2019-04-11T14:25:04.003Z,20.80
2019-04-11T14:27:44.674Z,20.77
2019-04-11T14:30:25.435Z,20.17
2019-04-11T14:33:02.001Z,20.52
2019-04-11T14:35:37.855Z,20.60
2019-04-11T14:38:11.904Z,20.63
2019-04-11T14:40:47.786Z,21.80
2019-04-11T14:43:28.739Z,21.67
2019-04-11T14:46:06.910Z,21.23
2019-04-11T14:48:45.437Z,21.87
2019-04-11T14:51:20.815Z,22.50
2019-04-11T14:53:54.787Z,22.27
2019-04-11T14:56:30.737Z,21.93
2019-04-11T14:59:04.462Z,22.25
2019-04-11T15:01:38.361Z,22.58
2019-04-11T15:04:13.613Z,23.90
2019-04-11T15:06:46.952Z,23.30
2019-04-11T15:09:20.512Z,22.77
2019-04-11T15:11:55.013Z,23.93
2019-04-11T15:14:28.204Z,22.60
2019-04-11T15:17:02.137Z,22.17
2019-04-11T15:19:38.959Z,22.37
2019-04-11T15:22:12.632Z,22.97
2019-04-11T15:24:46.286Z,22.57
2019-04-11T15:27:21.841Z,23.23
2019-04-11T15:29:55.056Z,25.32
2019-04-11T15:32:28.682Z,25.00
2019-04-11T15:35:02.727Z,26.23
2019-04-11T15:37:36.506Z,25.10
2019-04-11T15:40:10.989Z,24.80
2019-04-11T15:42:44.903Z,25.03
2019-04-11T15:45:18.321Z,24.80
2019-04-11T15:47:52.590Z,25.07
2019-04-11T15:50:30.487Z,24.70
2019-04-11T15:53:04.678Z,26.70
2019-04-11T15:55:37.709Z,27.62
2019-04-11T15:58:13.780Z,28.83
2019-04-11T16:00:48.683Z,28.77
2019-04-11T16:03:24.532Z,28.53
2019-04-11T16:06:01.596Z,28.10
2019-04-11T16:08:33.907Z,28.27
2019-04-11T16:11:12.063Z,29.47
2019-04-11T16:13:42.633Z,28.73
2019-04-11T16:16:16.615Z,28.83
2019-04-11T16:18:50.397Z,29.93
2019-04-11T16:21:24.323Z,30.30
2019-04-11T16:23:58.572Z,28.85
2019-04-11T16:26:32.337Z,29.97
2019-04-11T16:29:08.341Z,29.02
2019-04-11T16:31:40.804Z,30.77
2019-04-11T16:34:16.134Z,29.70
2019-04-11T16:36:49.045Z,30.10
2019-04-11T16:39:22.950Z,29.87
2019-04-11T16:41:57.783Z,30.50
2019-04-11T16:44:31.457Z,31.17
2019-04-11T16:47:08.237Z,32.00
2019-04-11T16:49:42.256Z,30.63
2019-04-11T16:52:16.272Z,32.40
2019-04-11T16:54:49.958Z,30.67
2019-04-11T16:57:23.389Z,30.57
2019-04-11T16:59:58.446Z,33.07
2019-04-11T17:02:32.082Z,32.73
2019-04-11T17:05:06.894Z,31.80
2019-04-11T17:07:41.652Z,32.85
2019-04-11T17:10:15.166Z,33.00
2019-04-11T17:12:48.668Z,33.20
2019-04-11T17:15:22.784Z,34.08
2019-04-11T17:17:56.489Z,33.77
2019-04-11T17:20:29.943Z,33.67
2019-04-11T17:23:03.642Z,32.43
2019-04-11T17:25:37.350Z,33.30
2019-04-11T17:28:11.174Z,34.58
2019-04-11T17:30:44.811Z,33.53
2019-04-11T17:33:18.475Z,34.00
2019-04-11T17:35:52.332Z,32.93
2019-04-11T17:38:25.629Z,32.37
2019-04-11T17:40:59.068Z,32.17
2019-04-11T17:43:32.655Z,31.48
2019-04-11T17:46:06.103Z,30.65
2019-04-11T17:48:42.729Z,31.30
2019-04-11T17:51:16.433Z,31.83
2019-04-11T17:53:50.109Z,30.73
2019-04-11T17:56:25.348Z,30.47
2019-04-11T17:58:58.689Z,30.93
2019-04-11T18:01:33.529Z,30.35
2019-04-11T18:04:08.864Z,31.40
2019-04-11T18:06:46.956Z,31.10
2019-04-11T18:09:20.465Z,29.87
2019-04-11T18:11:55.926Z,29.45
2019-04-11T18:14:30.953Z,30.77
2019-04-11T18:17:04.773Z,29.85
2019-04-11T18:19:39.154Z,30.25
2019-04-11T18:22:14.354Z,28.60
2019-04-11T18:24:50.026Z,30.00
2019-04-11T18:27:23.265Z,29.20
2019-04-11T18:29:56.846Z,29.90
2019-04-11T18:32:31.054Z,29.73
2019-04-11T18:35:04.857Z,28.87
2019-04-11T18:37:38.772Z,29.30
2019-04-11T18:40:14.950Z,30.20
2019-04-11T18:42:50.069Z,29.53
2019-04-11T18:45:23.644Z,29.73
2019-04-11T18:47:57.145Z,30.00
2019-04-11T18:50:32.494Z,29.37
2019-04-11T18:53:06.181Z,29.70
2019-04-11T18:55:39.843Z,30.70
2019-04-11T18:58:13.519Z,31.20
2019-04-11T19:00:47.435Z,31.00
2019-04-11T19:03:21.206Z,29.20
2019-04-11T19:05:56.865Z,30.80
2019-04-11T19:08:30.729Z,29.43
2019-04-11T19:11:04.481Z,28.53
2019-04-11T19:13:37.967Z,27.80
2019-04-11T19:16:13.802Z,28.30
2019-04-11T19:18:47.790Z,27.20
2019-04-11T19:21:21.615Z,27.30
2019-04-11T19:23:55.842Z,25.80
2019-04-11T19:26:29.289Z,27.27
2019-04-11T19:29:03.060Z,27.77
2019-04-11T19:31:36.775Z,27.23
2019-04-11T19:34:10.275Z,26.60
2019-04-11T19:36:43.816Z,25.40
2019-04-11T19:39:17.520Z,26.00
2019-04-11T19:41:51.235Z,25.83
2019-04-11T19:44:25.045Z,25.70
2019-04-11T19:47:01.684Z,25.60
2019-04-11T19:49:35.400Z,26.67
2019-04-11T19:52:09.104Z,26.15
2019-04-11T19:54:42.665Z,26.40
2019-04-11T19:57:16.148Z,25.93
2019-04-11T19:59:49.779Z,26.40
2019-04-11T20:02:24.055Z,24.52
2019-04-11T20:04:57.828Z,24.10
2019-04-11T20:07:32.342Z,25.10
2019-04-11T20:10:06.715Z,26.43
2019-04-11T20:12:40.363Z,27.40
2019-04-11T20:15:14.085Z,25.00
2019-04-11T20:17:51.897Z,25.63
2019-04-11T20:20:23.783Z,25.40
2019-04-11T20:22:59.253Z,24.40
2019-04-11T20:25:32.252Z,24.52
2019-04-11T20:28:06.151Z,25.33
2019-04-11T20:30:39.662Z,24.50
2019-04-11T20:33:13.307Z,25.17
2019-04-11T20:35:48.665Z,25.33
2019-04-11T20:38:22.435Z,23.50
2019-04-11T20:40:56.701Z,24.13
2019-04-11T20:43:30.706Z,24.63
2019-04-11T20:46:04.105Z,24.33
2019-04-11T20:48:37.439Z,24.27
2019-04-11T20:51:11.083Z,23.47
2019-04-11T20:53:44.752Z,24.40
2019-04-11T20:56:24.110Z,24.07
2019-04-11T20:58:54.008Z,22.73
2019-04-11T21:01:27.448Z,23.73
2019-04-11T21:04:04.450Z,22.77
2019-04-11T21:06:35.876Z,22.17
2019-04-11T21:09:10.622Z,23.40
2019-04-11T21:11:44.344Z,23.47
2019-04-11T21:14:17.874Z,23.57
2019-04-11T21:16:55.492Z,21.73
2019-04-11T21:19:29.489Z,22.17
2019-04-11T21:22:05.474Z,22.40
2019-04-11T21:24:39.259Z,22.60
2019-04-11T21:27:12.652Z,22.47
2019-04-11T21:29:46.344Z,21.40
2019-04-11T21:32:19.926Z,21.90
2019-04-11T21:34:53.839Z,21.53
2019-04-11T21:37:30.091Z,21.83
2019-04-11T21:40:02.722Z,21.05
2019-04-11T21:42:37.023Z,21.20
2019-04-11T21:45:13.189Z,20.87
2019-04-11T21:47:48.507Z,21.13
2019-04-11T21:50:23.657Z,20.93
2019-04-11T21:52:57.368Z,20.83
2019-04-11T21:55:32.521Z,20.60
2019-04-11T21:58:06.242Z,20.07
2019-04-11T22:00:42.698Z,19.60
2019-04-11T22:03:16.738Z,19.97
2019-04-11T22:06:03.922Z,19.77
2019-04-11T22:08:39.371Z,20.50
2019-04-11T22:11:13.035Z,19.97
2019-04-11T22:13:48.488Z,18.93
2019-04-11T22:16:23.671Z,18.87
2019-04-11T22:18:57.383Z,18.53
2019-04-11T22:21:31.023Z,17.77
2019-04-11T22:24:04.967Z,17.42
2019-04-11T22:26:40.354Z,18.07
2019-04-11T22:29:16.136Z,17.57
2019-04-11T22:31:50.653Z,18.07
2019-04-11T22:34:26.028Z,18.23
2019-04-11T22:37:00.011Z,17.43
2019-04-11T22:39:35.445Z,17.90
2019-04-11T22:42:09.534Z,17.85
2019-04-11T22:44:42.966Z,18.30
2019-04-11T22:47:16.629Z,17.43
2019-04-11T22:49:52.640Z,18.00
2019-04-11T22:52:26.452Z,17.23
2019-04-11T22:55:00.226Z,19.30
2019-04-11T22:57:34.054Z,19.00
2019-04-11T23:00:09.102Z,19.63
2019-04-11T23:02:44.924Z,20.17
2019-04-11T23:05:17.979Z,20.40
2019-04-11T23:07:51.985Z,21.23
2019-04-11T23:10:25.756Z,20.90
2019-04-11T23:12:59.584Z,22.20
2019-04-11T23:15:33.220Z,22.47
2019-04-11T23:18:06.662Z,22.80
2019-04-11T23:20:43.799Z,21.80
2019-04-11T23:23:15.208Z,21.93
2019-04-11T23:25:48.717Z,23.60
2019-04-11T23:28:22.586Z,23.80
2019-04-11T23:30:56.119Z,24.37
2019-04-11T23:33:29.590Z,23.90
2019-04-11T23:36:03.520Z,23.40
2019-04-11T23:38:36.983Z,24.30
2019-04-11T23:41:10.649Z,24.07
2019-04-11T23:43:44.082Z,24.93
2019-04-11T23:46:18.947Z,25.87
2019-04-11T23:48:55.552Z,25.20
2019-04-11T23:51:27.369Z,26.13
2019-04-11T23:54:02.168Z,25.40
2019-04-11T23:56:35.567Z,25.93
2019-04-11T23:59:09.274Z,26.83
